TimeCST,TemperatureF,Dew PointF,Humidity,Sea Level PressureIn,VisibilityMPH,Wind Direction,Wind SpeedMPH,Gust SpeedMPH,PrecipitationIn,Events,Conditions,WindDirDegrees,DateUTC
3:00 AM,73,71,91,30.03,12,Calm,Calm,,,,Mostly Cloudy,,2012-11-27 09:00:00
5:00 AM,69.8,68.0,94,30.04,6.2,Calm,Calm,-,N/A,,Partly Cloudy,0,2012-11-27 11:00:00
6:00 AM,69,68,95,30.05,12,West,3.5,,,,Mostly Cloudy,270,2012-11-27 12:00:00
6:00 AM,69.8,68.0,94,30.04,6.2,West,3.5,-,N/A,,Mostly Cloudy,270,2012-11-27 12:00:00
7:00 AM,69.8,68.0,94,30.04,6.2,West,3.5,-,N/A,,Mostly Cloudy,280,2012-11-27 13:00:00
8:00 AM,73.4,69.8,88,30.06,6.2,West,5.8,-,N/A,,Mostly Cloudy,280,2012-11-27 14:00:00
9:00 AM,76,71,80,30.08,12,WNW,5.8,,,,Scattered Clouds,290,2012-11-27 15:00:00
9:00 AM,77.0,71.6,83,30.07,6.2,WNW,5.8,-,N/A,,Scattered Clouds,290,2012-11-27 15:00:00
10:00 AM,82.4,71.6,70,30.07,6.2,North,6.9,-,N/A,,Mostly Cloudy,10,2012-11-27 16:00:00
11:00 AM,82.4,73.4,74,30.06,6.2,NNE,9.2,-,N/A,,Mostly Cloudy,30,2012-11-27 17:00:00
12:00 PM,81,73,70,30.06,12,NNE,8.1,,,,Mostly Cloudy,30,2012-11-27 18:00:00
12:00 PM,80.6,73.4,79,30.05,6.2,NNE,8.1,-,N/A,,Mostly Cloudy,30,2012-11-27 18:00:00
1:00 PM,82.4,75.2,79,30.02,6.2,NE,8.1,-,N/A,,Mostly Cloudy,50,2012-11-27 19:00:00
2:00 PM,82.4,73.4,74,30.01,6.2,NE,9.2,-,N/A,,Mostly Cloudy,50,2012-11-27 20:00:00
3:00 PM,82,73,68,30.01,12,NE,9.2,,,,Mostly Cloudy,50,2012-11-27 21:00:00
3:00 PM,82.4,73.4,74,30.00,6.2,NE,9.2,-,N/A,,Mostly Cloudy,50,2012-11-27 21:00:00
4:00 PM,80.6,71.6,74,30.01,6.2,North,10.4,-,N/A,,Mostly Cloudy,350,2012-11-27 22:00:00
5:00 PM,78.8,71.6,78,30.02,6.2,NNW,6.9,-,N/A,,Mostly Cloudy,340,2012-11-27 23:00:00
6:00 PM,78,73,79,30.05,12,NNW,6.9,,,,Mostly Cloudy,340,2012-11-28 00:00:00
6:00 PM,78.8,73.4,83,30.05,6.2,NNW,6.9,-,N/A,,Mostly Cloudy,340,2012-11-28 00:00:00
7:00 PM,78.8,71.6,78,30.06,6.2,NNW,6.9,-,N/A,,Mostly Cloudy,340,2012-11-28 01:00:00
8:00 PM,78.8,71.6,78,30.08,6.2,NNW,4.6,-,N/A,,Mostly Cloudy,330,2012-11-28 02:00:00
9:00 PM,77,72,81,30.11,12,North,4.6,,,,Mostly Cloudy,0,2012-11-28 03:00:00